createdAt,value
2019-02-16T00:00:43.786Z,26.85
2019-02-16T00:03:22.926Z,30.27
2019-02-16T00:05:51.834Z,25.57
2019-02-16T00:08:20.285Z,26.87
2019-02-16T00:10:49.032Z,26.67
2019-02-16T00:13:29.633Z,27.93
2019-02-16T00:15:58.117Z,23.45
2019-02-16T00:21:21.310Z,24.73
2019-02-16T00:23:51.321Z,27.15
2019-02-16T00:26:20.090Z,26.15
2019-02-16T00:28:49.182Z,27.75
2019-02-16T00:31:17.657Z,30.33
2019-02-16T00:33:47.473Z,30.07
2019-02-16T00:36:16.366Z,29.12
2019-02-16T00:38:45.153Z,29.23
2019-02-16T00:41:13.985Z,32.85
2019-02-16T00:43:43.141Z,31.13
2019-02-16T00:46:11.617Z,31.30
2019-02-16T00:49:10.914Z,29.97
2019-02-16T00:51:39.699Z,30.37
2019-02-16T00:54:17.532Z,29.70
2019-02-16T00:56:47.212Z,31.80
2019-02-16T00:59:15.891Z,35.37
2019-02-16T01:01:44.886Z,32.50
2019-02-16T01:04:13.344Z,32.53
2019-02-16T01:06:43.278Z,28.73
2019-02-16T01:09:12.062Z,31.47
2019-02-16T01:11:40.542Z,28.15
2019-02-16T01:16:56.541Z,27.97
2019-02-16T01:19:31.382Z,28.12
2019-02-16T01:22:03.134Z,28.92
2019-02-16T01:24:31.822Z,25.07
2019-02-16T01:27:01.548Z,29.02
2019-02-16T01:29:30.439Z,31.73
2019-02-16T01:32:00.141Z,28.15
2019-02-16T01:34:29.112Z,29.52
2019-02-16T01:39:51.258Z,29.37
2019-02-16T01:42:19.843Z,27.27
2019-02-16T01:44:48.731Z,28.07
2019-02-16T01:47:17.213Z,28.40
2019-02-16T01:49:46.101Z,26.70
2019-02-16T01:52:14.895Z,27.40
2019-02-16T01:54:43.778Z,29.60
2019-02-16T01:57:13.383Z,28.97
2019-02-16T01:59:43.401Z,29.03
2019-02-16T02:02:12.194Z,31.77
2019-02-16T02:04:40.966Z,29.60
2019-02-16T02:07:09.884Z,28.62
2019-02-16T02:09:39.053Z,29.85
2019-02-16T02:12:08.457Z,32.03
2019-02-16T02:17:24.769Z,32.20
2019-02-16T02:19:53.559Z,30.63
2019-02-16T02:22:22.142Z,28.40
2019-02-16T02:24:51.029Z,29.90
2019-02-16T02:27:19.810Z,29.63
2019-02-16T02:29:48.602Z,28.03
2019-02-16T02:32:17.189Z,29.93
2019-02-16T02:34:46.069Z,29.48
2019-02-16T02:37:24.694Z,30.57
2019-02-16T02:39:53.277Z,31.23
2019-02-16T02:42:21.676Z,29.03
2019-02-16T02:44:50.655Z,30.07
2019-02-16T02:47:19.444Z,33.90
2019-02-16T02:49:48.446Z,32.33
2019-02-16T02:52:17.211Z,32.20
2019-02-16T02:54:46.009Z,30.07
2019-02-16T02:57:14.774Z,33.42
2019-02-16T02:59:44.390Z,37.87
2019-02-16T03:02:13.301Z,34.23
2019-02-16T03:04:41.963Z,35.30
2019-02-16T03:07:10.542Z,31.00
2019-02-16T03:09:39.322Z,33.57
2019-02-16T03:15:09.581Z,33.97
2019-02-16T03:17:38.451Z,30.70
2019-02-16T03:20:07.243Z,34.73
2019-02-16T03:22:54.287Z,33.83
2019-02-16T03:27:55.304Z,32.73
2019-02-16T03:33:25.343Z,36.67
2019-02-16T03:36:07.439Z,38.55
2019-02-16T03:38:46.408Z,40.40
2019-02-16T03:41:36.859Z,32.43
2019-02-16T03:44:05.957Z,34.80
2019-02-16T03:46:34.766Z,31.50
2019-02-16T03:49:03.534Z,35.60
2019-02-16T03:51:32.570Z,33.03
2019-02-16T03:54:01.847Z,32.73
2019-02-16T03:56:30.609Z,38.40
2019-02-16T03:59:00.520Z,40.63
2019-02-16T04:01:30.226Z,36.80
2019-02-16T04:03:59.144Z,36.63
2019-02-16T04:06:28.213Z,36.70
2019-02-16T04:08:57.098Z,36.07
2019-02-16T04:11:25.793Z,39.50
2019-02-16T04:13:55.141Z,37.60
2019-02-16T04:16:24.097Z,40.73
2019-02-16T04:18:52.858Z,39.25
2019-02-16T04:21:21.341Z,43.00
2019-02-16T04:23:50.229Z,43.73
2019-02-16T04:26:19.019Z,40.50
2019-02-16T04:28:57.022Z,38.35
2019-02-16T04:31:27.855Z,40.57
2019-02-16T04:34:43.457Z,44.40
2019-02-16T04:36:44.703Z,43.47
2019-02-16T04:39:13.366Z,41.73
2019-02-16T04:41:42.460Z,37.38
2019-02-16T04:44:11.237Z,39.03
2019-02-16T04:47:02.010Z,38.13
2019-02-16T04:49:30.955Z,38.73
2019-02-16T04:52:00.112Z,41.80
2019-02-16T04:54:29.122Z,39.63
2019-02-16T04:56:58.032Z,39.50
2019-02-16T04:59:26.802Z,37.40
2019-02-16T05:01:56.506Z,39.33
2019-02-16T05:04:25.092Z,42.75
2019-02-16T05:06:53.880Z,37.57
2019-02-16T05:09:23.939Z,39.63
2019-02-16T05:11:52.696Z,40.43
2019-02-16T05:14:21.258Z,39.77
2019-02-16T05:16:50.042Z,42.33
2019-02-16T05:19:30.909Z,43.40
2019-02-16T05:22:00.135Z,45.80
2019-02-16T05:24:28.794Z,43.17
2019-02-16T05:26:57.588Z,41.10
2019-02-16T05:29:26.061Z,43.95
2019-02-16T05:31:55.178Z,42.35
2019-02-16T05:34:30.007Z,41.43
2019-02-16T05:36:58.895Z,46.83
2019-02-16T05:40:16.526Z,44.70
2019-02-16T05:42:04.867Z,46.42
2019-02-16T05:44:33.933Z,48.78
2019-02-16T05:47:02.723Z,51.37
2019-02-16T05:49:31.516Z,49.23
2019-02-16T05:52:01.013Z,54.38
2019-02-16T05:54:29.989Z,54.25
2019-02-16T05:57:00.945Z,55.57
2019-02-16T05:59:29.530Z,58.75
2019-02-16T06:01:59.489Z,56.85
2019-02-16T06:04:28.117Z,51.77
2019-02-16T06:06:56.593Z,51.30
2019-02-16T06:09:25.486Z,58.20
2019-02-16T06:11:54.277Z,57.43
2019-02-16T06:14:52.474Z,57.73
2019-02-16T06:17:20.929Z,63.10
2019-02-16T06:19:58.730Z,64.43
2019-02-16T06:22:29.050Z,59.27
2019-02-16T06:24:57.758Z,56.95
2019-02-16T06:27:26.639Z,59.27
2019-02-16T06:29:55.971Z,53.13
2019-02-16T06:32:24.750Z,56.45
2019-02-16T06:34:55.465Z,58.03
2019-02-16T06:37:38.926Z,61.02
2019-02-16T06:40:07.883Z,56.30
2019-02-16T06:43:07.798Z,55.53
2019-02-16T06:45:36.577Z,59.33
2019-02-16T06:48:12.765Z,60.13
2019-02-16T06:50:41.650Z,58.23
2019-02-16T06:53:29.093Z,52.24
2019-02-16T06:56:00.625Z,51.33
2019-02-16T07:01:33.904Z,50.07
2019-02-16T07:04:33.305Z,62.37
2019-02-16T07:07:02.297Z,57.30
2019-02-16T07:09:31.403Z,56.90
2019-02-16T07:12:03.684Z,58.20
2019-02-16T07:14:32.370Z,58.40
2019-02-16T07:17:20.584Z,64.70
2019-02-16T07:19:51.255Z,59.83
2019-02-16T07:22:20.336Z,66.13
2019-02-16T07:24:49.266Z,76.50
2019-02-16T07:27:18.225Z,71.77
2019-02-16T07:29:47.927Z,69.10
2019-02-16T07:32:16.777Z,66.87
2019-02-16T07:34:51.965Z,61.10
2019-02-16T07:37:20.413Z,59.57
2019-02-16T07:39:56.567Z,53.03
2019-02-16T07:42:27.335Z,57.40
2019-02-16T07:45:00.919Z,67.05
2019-02-16T07:47:31.458Z,54.40
2019-02-16T07:50:10.960Z,57.37
2019-02-16T07:52:47.542Z,56.63
2019-02-16T07:55:23.515Z,58.07
2019-02-16T07:57:56.689Z,50.45
2019-02-16T08:03:23.230Z,46.70
2019-02-16T08:06:21.312Z,54.30
2019-02-16T08:08:55.205Z,57.90
2019-02-16T08:14:33.047Z,55.35
2019-02-16T08:17:32.439Z,52.23
2019-02-16T08:20:19.061Z,53.40
2019-02-16T08:22:52.781Z,59.42
2019-02-16T08:25:29.379Z,55.37
2019-02-16T08:30:44.389Z,51.50
2019-02-16T08:33:17.713Z,56.87
2019-02-16T08:35:48.333Z,51.90
2019-02-16T08:38:27.662Z,52.77
2019-02-16T08:41:01.546Z,52.95
2019-02-16T08:43:34.844Z,57.07
2019-02-16T08:46:05.271Z,49.10
2019-02-16T08:48:38.664Z,44.03
2019-02-16T08:51:08.981Z,42.00
2019-02-16T08:53:39.313Z,42.33
2019-02-16T08:56:09.522Z,41.73
2019-02-16T08:58:48.582Z,45.60
2019-02-16T09:01:43.068Z,41.93
2019-02-16T09:04:28.223Z,46.60
2019-02-16T09:07:10.630Z,41.77
2019-02-16T09:09:41.370Z,51.60
2019-02-16T09:12:17.468Z,50.33
2019-02-16T09:14:47.957Z,55.73
2019-02-16T09:20:44.194Z,55.23
2019-02-16T09:23:39.430Z,53.57
2019-02-16T09:26:21.614Z,48.87
2019-02-16T09:29:17.537Z,46.18
2019-02-16T09:31:54.232Z,41.70
2019-02-16T09:34:48.898Z,45.55
2019-02-16T09:37:21.988Z,40.70
2019-02-16T09:43:08.404Z,40.96
2019-02-16T09:46:05.078Z,37.35
2019-02-16T09:48:53.498Z,42.70
2019-02-16T09:51:40.309Z,37.20
2019-02-16T09:54:11.030Z,37.25
2019-02-16T09:59:56.636Z,43.45
2019-02-16T10:02:45.399Z,40.50
2019-02-16T10:05:38.090Z,43.30
2019-02-16T10:08:08.039Z,41.97
2019-02-16T10:10:44.949Z,43.05
2019-02-16T10:13:15.146Z,40.90
2019-02-16T10:16:02.294Z,37.25
2019-02-16T10:21:14.270Z,35.25
2019-02-16T10:23:51.001Z,38.40
2019-02-16T10:26:21.482Z,40.35
2019-02-16T10:28:51.903Z,38.85
2019-02-16T10:31:37.794Z,43.00
2019-02-16T10:34:14.284Z,35.03
2019-02-16T10:36:45.204Z,39.80
2019-02-16T10:39:21.662Z,38.70
2019-02-16T10:41:52.614Z,37.07
2019-02-16T10:44:32.035Z,35.33
2019-02-16T10:47:08.706Z,41.28
2019-02-16T10:49:56.178Z,44.03
2019-02-16T10:52:29.326Z,39.58
2019-02-16T10:55:05.579Z,39.97
2019-02-16T11:00:32.988Z,35.73
2019-02-16T11:06:04.836Z,36.95
2019-02-16T11:08:40.860Z,39.03
2019-02-16T11:11:15.509Z,41.37
2019-02-16T11:13:45.806Z,43.40
2019-02-16T11:16:23.229Z,44.70
2019-02-16T11:18:53.880Z,36.43
2019-02-16T11:24:22.088Z,37.73
2019-02-16T11:30:03.358Z,34.93
2019-02-16T11:33:01.724Z,30.88
2019-02-16T11:35:34.890Z,32.55
2019-02-16T11:38:36.475Z,33.47
2019-02-16T11:41:08.901Z,31.03
2019-02-16T11:43:43.047Z,27.58
2019-02-16T11:46:16.440Z,29.70
2019-02-16T11:48:52.077Z,28.83
2019-02-16T11:51:22.184Z,24.70
2019-02-16T11:54:01.851Z,28.98
2019-02-16T11:56:47.610Z,31.65
2019-02-16T11:59:20.997Z,28.23
2019-02-16T12:02:01.593Z,33.88
2019-02-16T12:04:37.727Z,31.68
2019-02-16T12:07:13.885Z,34.18
2019-02-16T12:09:46.673Z,33.50
2019-02-16T12:12:21.049Z,37.48
2019-02-16T12:14:51.370Z,29.30
2019-02-16T12:17:38.226Z,28.93
2019-02-16T12:20:33.131Z,29.25
2019-02-16T12:23:08.376Z,30.87
2019-02-16T12:25:44.101Z,33.28
2019-02-16T12:28:14.139Z,32.63
2019-02-16T12:31:08.360Z,28.35
2019-02-16T12:33:38.629Z,26.62
2019-02-16T12:36:08.929Z,30.10
2019-02-16T12:38:41.834Z,31.12
2019-02-16T12:41:11.831Z,26.80
2019-02-16T12:43:54.147Z,25.83
2019-02-16T12:46:24.292Z,29.17
2019-02-16T12:48:54.592Z,33.53
2019-02-16T12:51:24.916Z,29.57
2019-02-16T12:54:01.447Z,29.63
2019-02-16T12:56:32.042Z,26.35
2019-02-16T12:59:04.803Z,35.63
2019-02-16T13:01:35.037Z,28.85
2019-02-16T13:04:05.625Z,28.57
2019-02-16T13:06:51.188Z,25.57
2019-02-16T13:09:24.205Z,26.37
2019-02-16T13:12:06.723Z,25.03
2019-02-16T13:14:42.480Z,30.37
2019-02-16T13:17:22.030Z,32.90
2019-02-16T13:19:52.776Z,30.25
2019-02-16T13:22:29.115Z,22.23
2019-02-16T13:25:02.552Z,24.12
2019-02-16T13:27:38.351Z,29.12
2019-02-16T13:30:18.644Z,28.67
2019-02-16T13:33:08.291Z,29.80
2019-02-16T13:35:31.740Z,23.02
2019-02-16T13:38:11.100Z,26.95
2019-02-16T13:40:41.908Z,28.70
2019-02-16T13:43:28.546Z,23.27
2019-02-16T13:45:58.965Z,26.37
2019-02-16T13:48:41.781Z,26.07
2019-02-16T13:51:11.999Z,24.07
2019-02-16T13:53:42.515Z,24.50
2019-02-16T13:56:15.926Z,25.07
2019-02-16T13:58:52.707Z,24.20
2019-02-16T14:01:23.235Z,21.80
2019-02-16T14:04:02.868Z,24.05
2019-02-16T14:06:33.082Z,21.15
2019-02-16T14:09:11.467Z,28.00
2019-02-16T14:11:42.133Z,21.57
2019-02-16T14:14:15.102Z,26.10
2019-02-16T14:16:58.146Z,25.80
2019-02-16T14:19:27.126Z,26.07
2019-02-16T14:21:56.365Z,29.07
2019-02-16T14:24:43.438Z,28.77
2019-02-16T14:27:13.253Z,25.10
2019-02-16T14:29:42.426Z,20.17
2019-02-16T14:32:11.538Z,20.07
2019-02-16T14:34:41.043Z,20.70
2019-02-16T14:37:11.128Z,21.77
2019-02-16T14:39:39.857Z,19.03
2019-02-16T14:42:08.781Z,21.07
2019-02-16T14:44:37.804Z,16.23
2019-02-16T14:47:06.593Z,20.53
2019-02-16T14:49:35.813Z,20.80
2019-02-16T14:52:06.148Z,20.20
2019-02-16T14:54:36.251Z,19.95
2019-02-16T14:57:06.677Z,19.64
2019-02-16T14:59:35.566Z,19.32
2019-02-16T15:02:05.911Z,16.30
2019-02-16T15:04:35.292Z,17.80
2019-02-16T15:07:04.185Z,15.60
2019-02-16T15:09:32.952Z,14.43
2019-02-16T15:12:02.165Z,20.12
2019-02-16T15:14:31.358Z,19.50
2019-02-16T15:17:01.546Z,15.10
2019-02-16T15:19:30.570Z,18.07
2019-02-16T15:21:59.158Z,19.82
2019-02-16T15:24:28.055Z,17.10
2019-02-16T15:26:56.498Z,16.15
2019-02-16T15:29:25.233Z,17.27
2019-02-16T15:31:53.993Z,18.48
2019-02-16T15:34:22.446Z,18.40
2019-02-16T15:36:51.242Z,20.35
2019-02-16T15:39:19.718Z,17.57
2019-02-16T15:41:48.497Z,16.73
2019-02-16T15:44:16.987Z,24.63
2019-02-16T15:46:45.777Z,20.07
2019-02-16T15:49:14.257Z,23.83
2019-02-16T15:51:42.730Z,19.57
2019-02-16T15:54:11.147Z,24.00
2019-02-16T15:56:39.815Z,24.72
2019-02-16T15:59:09.623Z,22.62
2019-02-16T16:01:38.645Z,22.98
2019-02-16T16:04:07.388Z,20.63
2019-02-16T16:06:36.600Z,22.50
2019-02-16T16:09:23.097Z,18.30
2019-02-16T16:11:56.274Z,21.50
2019-02-16T16:14:43.391Z,22.65
2019-02-16T16:17:19.387Z,23.43
2019-02-16T16:19:55.933Z,17.00
2019-02-16T16:22:31.278Z,21.67
2019-02-16T16:25:07.503Z,24.12
2019-02-16T16:30:16.251Z,22.30
2019-02-16T16:33:03.064Z,28.47
2019-02-16T16:35:42.303Z,24.77
2019-02-16T16:38:34.418Z,23.80
2019-02-16T16:41:08.163Z,23.00
2019-02-16T16:43:47.679Z,24.73
2019-02-16T16:46:20.768Z,24.60
2019-02-16T16:49:07.866Z,29.75
2019-02-16T16:54:24.042Z,28.87
2019-02-16T16:56:57.123Z,28.90
2019-02-16T16:59:27.714Z,31.63
2019-02-16T17:02:06.739Z,37.33
2019-02-16T17:04:42.467Z,56.37
2019-02-16T17:09:51.648Z,65.05
2019-02-16T17:12:40.363Z,53.57
2019-02-16T17:15:13.476Z,45.35
2019-02-16T17:20:50.039Z,43.77
2019-02-16T17:23:24.611Z,42.50
2019-02-16T17:25:58.191Z,42.17
2019-02-16T17:28:45.217Z,45.55
2019-02-16T17:31:21.864Z,46.92
2019-02-16T17:33:52.831Z,36.65
2019-02-16T17:36:42.349Z,40.05
2019-02-16T17:39:15.896Z,35.70
2019-02-16T17:41:46.821Z,46.30
2019-02-16T17:44:18.999Z,54.50
2019-02-16T17:47:06.715Z,68.60
2019-02-16T17:49:40.044Z,65.70
2019-02-16T17:52:19.522Z,103.87
2019-02-16T17:55:05.284Z,56.53
2019-02-16T17:57:35.832Z,64.77
2019-02-16T18:00:09.630Z,135.16
2019-02-16T18:02:48.577Z,212.15
2019-02-16T18:05:37.086Z,148.97
2019-02-16T18:08:11.217Z,197.60
2019-02-16T18:10:41.477Z,111.13
2019-02-16T18:13:12.830Z,144.10
2019-02-16T18:15:53.053Z,100.30
2019-02-16T18:18:24.495Z,65.03
2019-02-16T18:20:55.159Z,49.88
2019-02-16T18:23:33.835Z,83.57
2019-02-16T18:26:07.056Z,69.17
2019-02-16T18:28:43.655Z,63.45
2019-02-16T18:31:17.223Z,63.40
2019-02-16T18:33:54.288Z,55.00
2019-02-16T18:36:27.096Z,54.87
2019-02-16T18:38:57.497Z,52.65
2019-02-16T18:41:30.711Z,46.40
2019-02-16T18:44:16.981Z,42.78
2019-02-16T18:46:53.017Z,38.03
2019-02-16T18:49:35.441Z,36.13
2019-02-16T18:52:10.415Z,41.70
2019-02-16T18:54:52.521Z,43.98
2019-02-16T18:57:28.182Z,38.47
2019-02-16T19:00:12.099Z,63.13
2019-02-16T19:02:48.089Z,125.30
2019-02-16T19:08:39.056Z,55.07
2019-02-16T19:11:23.432Z,57.73
2019-02-16T19:13:54.059Z,53.42
2019-02-16T19:16:35.163Z,49.80
2019-02-16T19:19:11.842Z,51.37
2019-02-16T19:21:44.113Z,37.93
2019-02-16T19:24:23.616Z,47.43
2019-02-16T19:27:16.467Z,45.12
2019-02-16T19:29:45.855Z,48.50
2019-02-16T19:32:18.819Z,39.48
2019-02-16T19:34:49.137Z,46.42
2019-02-16T19:37:22.319Z,62.07
2019-02-16T19:40:01.781Z,76.92
2019-02-16T19:42:36.310Z,55.90
2019-02-16T19:45:10.542Z,50.27
2019-02-16T19:51:26.004Z,48.93
2019-02-16T19:54:12.933Z,45.50
2019-02-16T19:56:46.394Z,46.33
2019-02-16T19:59:26.404Z,49.33
2019-02-16T20:01:57.829Z,46.98
2019-02-16T20:04:37.145Z,43.40
2019-02-16T20:07:27.063Z,54.94
2019-02-16T20:10:14.562Z,61.08
2019-02-16T20:12:51.535Z,107.78
2019-02-16T20:18:07.437Z,85.28
2019-02-16T20:20:47.272Z,67.60
2019-02-16T20:23:22.904Z,61.63
2019-02-16T20:25:54.012Z,60.25
2019-02-16T20:28:40.996Z,91.40
2019-02-16T20:31:24.844Z,55.80
2019-02-16T20:34:05.693Z,50.17
2019-02-16T20:36:45.533Z,51.73
2019-02-16T20:39:16.011Z,54.27
2019-02-16T20:41:55.514Z,53.13
2019-02-16T20:44:43.107Z,54.75
2019-02-16T20:47:26.059Z,62.15
2019-02-16T20:50:08.609Z,68.70
2019-02-16T20:52:55.256Z,64.27
2019-02-16T20:55:25.373Z,63.98
2019-02-16T20:58:06.881Z,72.27
2019-02-16T21:00:46.518Z,64.80
2019-02-16T21:03:26.269Z,59.63
2019-02-16T21:06:12.863Z,70.40
2019-02-16T21:08:51.976Z,65.75
2019-02-16T21:11:31.227Z,64.23
2019-02-16T21:14:19.568Z,73.40
2019-02-16T21:17:02.784Z,95.35
2019-02-16T21:19:51.242Z,76.37
2019-02-16T21:22:24.831Z,63.90
2019-02-16T21:25:04.381Z,86.50
2019-02-16T21:27:57.687Z,81.67
2019-02-16T21:30:27.663Z,86.40
2019-02-16T21:33:01.410Z,83.25
2019-02-16T21:35:43.337Z,84.42
2019-02-16T21:38:16.533Z,78.47
2019-02-16T21:40:49.732Z,71.23
2019-02-16T21:43:28.844Z,69.87
2019-02-16T21:46:15.677Z,65.60
2019-02-16T21:48:55.192Z,66.20
2019-02-16T21:51:40.774Z,67.07
2019-02-16T21:54:11.646Z,127.75
2019-02-16T21:56:51.412Z,170.90
2019-02-16T21:59:23.127Z,209.45
2019-02-16T22:01:56.413Z,149.15
2019-02-16T22:04:43.005Z,123.43
2019-02-16T22:07:26.249Z,67.42
2019-02-16T22:10:09.371Z,71.77
2019-02-16T22:12:55.441Z,73.27
2019-02-16T22:15:24.865Z,73.52
2019-02-16T22:17:53.766Z,70.63
2019-02-16T22:20:22.221Z,68.30
2019-02-16T22:22:50.995Z,71.37
2019-02-16T22:25:21.319Z,62.53
2019-02-16T22:27:49.904Z,65.70
2019-02-16T22:30:18.404Z,67.37
2019-02-16T22:32:47.177Z,75.63
2019-02-16T22:35:15.652Z,71.70
2019-02-16T22:37:44.563Z,56.70
2019-02-16T22:40:13.244Z,57.73
2019-02-16T22:42:42.013Z,76.93
2019-02-16T22:45:11.432Z,70.70
2019-02-16T22:47:40.212Z,94.67
2019-02-16T22:50:09.809Z,120.27
2019-02-16T22:52:38.609Z,117.87
2019-02-16T22:55:08.084Z,127.40
2019-02-16T22:57:36.887Z,100.93
2019-02-16T23:00:08.323Z,145.83
2019-02-16T23:02:38.665Z,140.40
2019-02-16T23:05:07.235Z,155.00
2019-02-16T23:07:36.024Z,137.57
2019-02-16T23:10:09.421Z,129.62
2019-02-16T23:12:38.843Z,111.65
2019-02-16T23:15:08.820Z,85.87
2019-02-16T23:17:37.743Z,91.03
2019-02-16T23:20:11.242Z,84.73
2019-02-16T23:22:40.131Z,72.57
2019-02-16T23:25:08.901Z,88.78
2019-02-16T23:27:37.502Z,74.72
2019-02-16T23:30:08.630Z,65.80
2019-02-16T23:32:37.512Z,69.80
2019-02-16T23:35:07.125Z,60.00
2019-02-16T23:37:36.130Z,61.33
2019-02-16T23:40:08.189Z,58.56
2019-02-16T23:42:36.966Z,59.97
2019-02-16T23:45:08.101Z,63.92
2019-02-16T23:47:36.889Z,64.90
2019-02-16T23:50:12.657Z,54.43
2019-02-16T23:52:41.730Z,55.05
2019-02-16T23:55:10.828Z,58.36
2019-02-16T23:57:39.628Z,52.20
